createdAt,value
2019-05-17T00:00:47.487Z,45.33
2019-05-17T00:03:17.924Z,42.23
2019-05-17T00:05:46.587Z,49.48
2019-05-17T00:08:20.371Z,47.33
2019-05-17T00:10:46.546Z,41.00
2019-05-17T00:13:17.232Z,33.08
2019-05-17T00:15:47.243Z,52.15
2019-05-17T00:18:16.972Z,54.10
2019-05-17T00:20:46.513Z,42.88
2019-05-17T00:23:17.231Z,42.43
2019-05-17T00:25:46.985Z,45.30
2019-05-17T00:28:16.453Z,34.60
2019-05-17T00:30:46.475Z,29.95
2019-05-17T00:33:16.928Z,35.10
2019-05-17T00:35:46.835Z,38.70
2019-05-17T00:38:16.904Z,35.05
2019-05-17T00:40:46.901Z,31.20
2019-05-17T00:43:16.755Z,31.80
2019-05-17T00:45:46.698Z,49.30
2019-05-17T00:48:16.945Z,37.83
2019-05-17T00:50:44.645Z,41.02
2019-05-17T00:53:12.962Z,26.35
2019-05-17T00:55:41.278Z,41.73
2019-05-17T00:58:09.583Z,38.48
2019-05-17T01:00:38.147Z,44.65
2019-05-17T01:03:07.261Z,32.15
2019-05-17T01:05:36.891Z,53.50
2019-05-17T01:08:07.138Z,35.68
2019-05-17T01:10:36.908Z,42.93
2019-05-17T01:13:06.758Z,38.75
2019-05-17T01:15:36.874Z,51.77
2019-05-17T01:18:07.215Z,42.40
2019-05-17T01:20:36.959Z,45.60
2019-05-17T01:23:07.554Z,37.30
2019-05-17T01:25:36.754Z,46.23
2019-05-17T01:28:07.545Z,30.08
2019-05-17T01:30:37.442Z,49.63
2019-05-17T01:33:06.621Z,44.58
2019-05-17T01:35:37.368Z,43.98
2019-05-17T01:38:07.348Z,38.02
2019-05-17T01:40:37.302Z,27.20
2019-05-17T01:43:07.569Z,18.73
2019-05-17T01:45:36.490Z,20.00
2019-05-17T01:48:07.263Z,18.98
2019-05-17T01:50:37.446Z,18.95
2019-05-17T01:53:07.120Z,20.95
2019-05-17T01:55:37.207Z,17.73
2019-05-17T01:58:07.339Z,17.87
2019-05-17T02:00:37.563Z,18.13
2019-05-17T02:03:07.018Z,23.67
2019-05-17T02:05:37.308Z,30.07
2019-05-17T02:08:07.056Z,26.37
2019-05-17T02:10:37.589Z,33.57
2019-05-17T02:13:06.585Z,23.57
2019-05-17T02:15:37.471Z,39.80
2019-05-17T02:18:07.061Z,32.53
2019-05-17T02:20:37.211Z,36.93
2019-05-17T02:23:07.349Z,31.97
2019-05-17T02:25:36.932Z,53.30
2019-05-17T02:28:05.181Z,48.80
2019-05-17T02:30:33.977Z,98.90
2019-05-17T02:33:03.783Z,43.20
2019-05-17T02:35:33.707Z,75.90
2019-05-17T02:38:03.072Z,70.47
2019-05-17T02:40:34.194Z,86.53
2019-05-17T02:43:03.128Z,58.97
2019-05-17T02:45:33.000Z,64.97
2019-05-17T02:48:03.819Z,50.10
2019-05-17T02:50:33.405Z,43.75
2019-05-17T02:53:04.298Z,41.57
2019-05-17T02:55:32.689Z,68.92
2019-05-17T02:58:03.104Z,39.13
2019-05-17T03:00:33.808Z,40.73
2019-05-17T03:03:03.396Z,43.78
2019-05-17T03:05:33.689Z,34.08
2019-05-17T03:08:03.980Z,37.30
2019-05-17T03:10:33.584Z,33.18
2019-05-17T03:13:04.134Z,28.45
2019-05-17T03:15:32.404Z,28.77
2019-05-17T03:18:03.711Z,25.15
2019-05-17T03:20:32.917Z,23.22
2019-05-17T03:23:03.821Z,22.15
2019-05-17T03:25:33.387Z,22.30
2019-05-17T03:28:02.938Z,20.20
2019-05-17T03:30:36.317Z,30.83
2019-05-17T03:33:07.088Z,24.20
2019-05-17T03:35:37.738Z,19.65
2019-05-17T03:38:03.671Z,21.52
2019-05-17T03:41:01.172Z,20.45
2019-05-17T03:43:03.025Z,20.55
2019-05-17T03:45:33.903Z,18.12
2019-05-17T03:48:04.898Z,18.07
2019-05-17T03:50:33.468Z,26.07
2019-05-17T03:53:02.447Z,17.37
2019-05-17T03:55:33.262Z,21.73
2019-05-17T03:58:03.074Z,29.02
2019-05-17T04:00:34.847Z,18.85
2019-05-17T04:03:02.981Z,18.62
2019-05-17T04:05:33.506Z,27.35
2019-05-17T04:08:03.773Z,31.60
2019-05-17T04:10:33.444Z,30.88
2019-05-17T04:13:04.677Z,24.30
2019-05-17T04:15:33.342Z,27.05
2019-05-17T04:18:04.086Z,20.68
2019-05-17T04:20:33.675Z,24.23
2019-05-17T04:23:04.048Z,27.00
2019-05-17T04:25:33.446Z,26.25
2019-05-17T04:28:02.923Z,24.18
2019-05-17T04:30:32.837Z,21.25
2019-05-17T04:33:03.550Z,19.15
2019-05-17T04:35:32.756Z,26.85
2019-05-17T04:38:04.272Z,24.70
2019-05-17T04:40:33.972Z,22.65
2019-05-17T04:43:03.306Z,22.93
2019-05-17T04:45:33.682Z,20.08
2019-05-17T04:48:04.011Z,29.70
2019-05-17T04:50:33.600Z,20.92
2019-05-17T04:53:02.782Z,25.17
2019-05-17T04:55:34.153Z,22.67
2019-05-17T04:58:04.024Z,29.98
2019-05-17T05:00:34.023Z,38.23
2019-05-17T05:03:03.826Z,33.33
2019-05-17T05:05:33.098Z,37.20
2019-05-17T05:08:02.974Z,37.20
2019-05-17T05:10:33.802Z,31.77
2019-05-17T05:13:03.166Z,30.52
2019-05-17T05:15:34.270Z,29.42
2019-05-17T05:18:02.752Z,40.15
2019-05-17T05:20:32.550Z,46.18
2019-05-17T05:23:02.591Z,47.15
2019-05-17T05:25:32.330Z,42.75
2019-05-17T05:28:02.502Z,40.92
2019-05-17T05:30:32.038Z,59.83
2019-05-17T05:33:02.036Z,52.17
2019-05-17T05:35:31.823Z,65.50
2019-05-17T05:38:02.193Z,64.35
2019-05-17T05:40:32.068Z,63.05
2019-05-17T05:43:02.158Z,75.87
2019-05-17T05:45:31.947Z,75.55
2019-05-17T05:48:01.860Z,73.75
2019-05-17T05:50:32.196Z,167.55
2019-05-17T05:53:01.958Z,37.33
2019-05-17T05:55:31.984Z,47.90
2019-05-17T05:57:59.789Z,29.90
2019-05-17T06:00:28.562Z,27.42
2019-05-17T06:02:56.920Z,31.95
2019-05-17T06:05:25.334Z,34.15
2019-05-17T06:07:53.548Z,32.25
2019-05-17T06:10:22.118Z,42.50
2019-05-17T06:12:51.774Z,35.80
2019-05-17T06:15:21.960Z,37.85
2019-05-17T06:17:52.006Z,58.25
2019-05-17T06:20:22.420Z,70.03
2019-05-17T06:22:51.830Z,59.23
2019-05-17T06:25:23.395Z,53.80
2019-05-17T06:27:52.065Z,47.33
2019-05-17T06:30:21.965Z,45.25
2019-05-17T06:32:51.734Z,53.40
2019-05-17T06:35:21.743Z,55.60
2019-05-17T06:37:50.461Z,67.65
2019-05-17T06:40:18.789Z,41.00
2019-05-17T06:42:47.282Z,55.52
2019-05-17T06:45:15.581Z,54.05
2019-05-17T06:47:43.982Z,37.38
2019-05-17T06:50:14.495Z,42.98
2019-05-17T06:52:43.890Z,52.00
2019-05-17T06:55:12.945Z,51.37
2019-05-17T06:57:43.222Z,57.93
2019-05-17T07:00:19.835Z,47.50
2019-05-17T07:02:42.410Z,49.85
2019-05-17T07:05:12.638Z,49.13
2019-05-17T07:07:40.953Z,52.03
2019-05-17T07:10:11.189Z,46.63
2019-05-17T07:12:54.134Z,42.60
2019-05-17T07:15:10.735Z,45.08
2019-05-17T07:17:40.013Z,46.50
2019-05-17T07:20:10.353Z,45.00
2019-05-17T07:22:40.822Z,48.65
2019-05-17T07:25:10.759Z,45.95
2019-05-17T07:27:44.832Z,44.13
2019-05-17T07:30:10.027Z,83.97
2019-05-17T07:32:40.566Z,73.62
2019-05-17T07:35:10.656Z,68.28
2019-05-17T07:37:39.898Z,65.52
2019-05-17T07:40:10.470Z,74.12
2019-05-17T07:42:39.686Z,71.47
2019-05-17T07:45:10.033Z,72.03
2019-05-17T07:47:40.537Z,58.10
2019-05-17T07:50:11.287Z,72.37
2019-05-17T07:52:40.122Z,67.50
2019-05-17T07:55:10.956Z,62.93
2019-05-17T07:57:40.900Z,82.50
2019-05-17T08:00:10.278Z,78.00
2019-05-17T08:02:40.120Z,61.70
2019-05-17T08:05:10.114Z,57.33
2019-05-17T08:07:40.503Z,62.10
2019-05-17T08:10:10.907Z,54.00
2019-05-17T08:12:40.650Z,46.48
2019-05-17T08:15:10.762Z,49.77
2019-05-17T08:17:39.839Z,59.23
2019-05-17T08:20:10.204Z,54.95
2019-05-17T08:22:39.828Z,63.92
2019-05-17T08:25:10.222Z,66.28
2019-05-17T08:27:40.456Z,58.68
2019-05-17T08:30:10.425Z,50.05
2019-05-17T08:32:40.119Z,53.15
2019-05-17T08:35:11.204Z,55.63
2019-05-17T08:37:42.434Z,44.38
2019-05-17T08:40:10.689Z,64.77
2019-05-17T08:42:40.673Z,59.03
2019-05-17T08:45:09.898Z,59.73
2019-05-17T08:47:39.761Z,55.20
2019-05-17T08:50:10.932Z,55.10
2019-05-17T08:52:40.547Z,262.45
2019-05-17T08:55:10.051Z,198.15
2019-05-17T08:57:40.056Z,143.75
2019-05-17T09:00:10.540Z,120.87
2019-05-17T09:02:40.909Z,117.42
2019-05-17T09:05:09.869Z,112.77
2019-05-17T09:07:40.205Z,152.57
2019-05-17T09:10:09.969Z,118.05
2019-05-17T09:12:41.059Z,120.90
2019-05-17T09:15:10.052Z,88.07
2019-05-17T09:17:39.633Z,198.30
2019-05-17T09:20:10.579Z,104.50
2019-05-17T09:22:39.865Z,87.25
2019-05-17T09:25:13.596Z,154.30
2019-05-17T09:27:39.979Z,185.07
2019-05-17T09:30:11.047Z,74.70
2019-05-17T09:32:40.365Z,61.25
2019-05-17T09:35:10.064Z,162.03
2019-05-17T09:37:41.359Z,93.97
2019-05-17T09:40:09.427Z,78.78
2019-05-17T09:42:41.113Z,83.60
2019-05-17T09:45:09.622Z,81.80
2019-05-17T09:47:39.760Z,96.20
2019-05-17T09:50:09.919Z,74.82
2019-05-17T09:52:40.534Z,67.92
2019-05-17T09:55:09.861Z,48.52
2019-05-17T09:57:40.822Z,242.03
2019-05-17T10:00:10.114Z,93.00
2019-05-17T10:02:40.182Z,94.83
2019-05-17T10:05:10.605Z,73.60
2019-05-17T10:07:40.272Z,83.30
2019-05-17T10:10:10.386Z,74.12
2019-05-17T10:12:40.320Z,85.17
2019-05-17T10:15:10.378Z,107.35
2019-05-17T10:17:38.869Z,83.82
2019-05-17T10:20:07.602Z,61.30
2019-05-17T10:22:36.039Z,60.05
2019-05-17T10:25:05.415Z,49.18
2019-05-17T10:27:33.790Z,63.90
2019-05-17T10:30:02.129Z,68.28
2019-05-17T10:32:31.093Z,68.55
2019-05-17T10:35:00.610Z,71.20
2019-05-17T10:37:31.401Z,89.65
2019-05-17T10:39:59.783Z,58.48
2019-05-17T10:42:30.567Z,73.42
2019-05-17T10:44:59.919Z,64.95
2019-05-17T10:47:30.103Z,86.10
2019-05-17T10:49:58.097Z,335.38
2019-05-17T10:52:26.251Z,323.93
2019-05-17T10:54:54.659Z,313.20
2019-05-17T11:00:41.308Z,318.60
2019-05-17T11:03:09.819Z,358.52
2019-05-17T11:05:40.230Z,345.48
2019-05-17T11:08:10.619Z,341.25
2019-05-17T11:10:39.607Z,262.77
2019-05-17T11:13:08.091Z,210.05
2019-05-17T11:15:36.929Z,364.03
2019-05-17T11:21:33.598Z,18.00
2019-05-17T11:24:02.061Z,14.00
2019-05-17T11:26:30.454Z,13.72
2019-05-17T11:43:01.909Z,17.15
2019-05-17T11:45:32.591Z,23.35
2019-05-17T11:47:59.428Z,27.65
2019-05-17T11:50:27.707Z,13.98
2019-05-17T11:52:56.009Z,13.72
2019-05-17T11:55:24.279Z,15.53
2019-05-17T11:57:52.696Z,22.55
2019-05-17T12:00:21.279Z,13.95
2019-05-17T12:02:49.629Z,11.60
2019-05-17T12:05:17.989Z,19.23
2019-05-17T12:07:46.310Z,15.50
2019-05-17T12:10:14.997Z,29.10
2019-05-17T12:12:43.287Z,23.65
2019-05-17T12:15:11.641Z,30.55
2019-05-17T12:17:39.970Z,29.23
2019-05-17T12:20:08.642Z,41.18
2019-05-17T12:22:36.978Z,54.67
2019-05-17T12:25:05.783Z,40.52
2019-05-17T12:27:34.076Z,54.20
2019-05-17T12:30:02.377Z,59.73
2019-05-17T12:32:32.069Z,306.98
2019-05-17T12:35:00.388Z,19.95
2019-05-17T12:37:28.773Z,21.93
2019-05-17T12:39:57.249Z,22.70
2019-05-17T12:42:25.614Z,26.62
2019-05-17T12:44:53.935Z,36.23
2019-05-17T12:47:22.269Z,64.07
2019-05-17T12:49:50.728Z,37.20
2019-05-17T12:52:19.117Z,42.40
2019-05-17T12:58:03.953Z,40.25
2019-05-17T13:00:32.435Z,49.85
2019-05-17T13:03:00.764Z,24.50
2019-05-17T13:08:44.702Z,54.25
2019-05-17T13:11:12.902Z,16.40
2019-05-17T13:13:41.258Z,11.25
2019-05-17T13:16:17.936Z,17.52
2019-05-17T13:18:39.588Z,11.85
2019-05-17T13:21:07.905Z,8.25
2019-05-17T13:23:36.211Z,13.80
2019-05-17T13:26:04.755Z,5.80
2019-05-17T13:28:33.165Z,21.23
2019-05-17T13:31:01.514Z,36.15
2019-05-17T13:33:30.083Z,46.85
2019-05-17T13:35:58.577Z,29.77
2019-05-17T13:38:27.291Z,25.20
2019-05-17T13:40:55.669Z,19.98
2019-05-17T13:43:24.071Z,28.20
2019-05-17T13:45:52.349Z,55.17
2019-05-17T13:48:20.691Z,41.58
2019-05-17T13:50:51.747Z,46.35
2019-05-17T13:53:18.749Z,47.50
2019-05-17T13:55:46.972Z,58.55
2019-05-17T13:58:15.307Z,44.18
2019-05-17T14:00:43.601Z,42.48
2019-05-17T14:03:11.968Z,28.95
2019-05-17T14:05:40.428Z,19.15
2019-05-17T14:08:08.761Z,43.38
2019-05-17T14:10:37.180Z,43.15
2019-05-17T14:13:05.590Z,32.40
2019-05-17T14:15:33.869Z,37.15
2019-05-17T14:18:02.305Z,24.57
2019-05-17T14:20:30.734Z,35.35
2019-05-17T14:22:59.170Z,30.77
2019-05-17T14:25:27.609Z,7.92
2019-05-17T14:31:11.746Z,47.13
2019-05-17T14:33:40.038Z,37.63
2019-05-17T14:36:08.367Z,34.40
2019-05-17T14:38:36.764Z,32.75
2019-05-17T14:41:07.667Z,30.27
2019-05-17T14:43:35.172Z,45.78
2019-05-17T14:46:04.224Z,40.58
2019-05-17T14:48:32.603Z,28.55
2019-05-17T14:51:00.998Z,24.27
2019-05-17T14:53:29.390Z,33.50
2019-05-17T14:55:57.785Z,43.95
2019-05-17T14:58:26.061Z,38.10
2019-05-17T15:00:54.361Z,43.13
2019-05-17T15:03:22.781Z,42.78
2019-05-17T15:05:51.037Z,29.77
2019-05-17T15:08:19.442Z,39.10
2019-05-17T15:10:47.803Z,39.48
2019-05-17T15:13:16.148Z,41.77
2019-05-17T15:15:44.554Z,35.48
2019-05-17T15:18:13.228Z,32.28
2019-05-17T15:20:41.602Z,31.23
2019-05-17T15:23:09.869Z,35.10
2019-05-17T15:25:38.136Z,55.73
2019-05-17T15:28:06.816Z,52.15
2019-05-17T15:30:36.189Z,45.78
2019-05-17T15:33:04.652Z,55.83
2019-05-17T15:35:32.917Z,52.60
2019-05-17T15:38:01.188Z,42.40
2019-05-17T15:40:29.632Z,49.08
2019-05-17T15:42:57.896Z,63.00
2019-05-17T15:45:26.169Z,52.98
2019-05-17T15:47:54.458Z,41.80
2019-05-17T15:50:22.804Z,45.15
2019-05-17T15:52:51.159Z,31.07
2019-05-17T15:55:19.533Z,38.55
2019-05-17T15:57:47.878Z,27.13
2019-05-17T16:00:16.551Z,27.90
2019-05-17T16:02:44.905Z,24.45
2019-05-17T16:05:13.782Z,19.52
2019-05-17T16:07:42.039Z,9.03
2019-05-17T16:10:10.717Z,9.40
2019-05-17T16:12:39.039Z,6.83
2019-05-17T16:15:07.934Z,13.30
2019-05-17T16:17:36.341Z,15.30
2019-05-17T16:20:06.179Z,12.70
2019-05-17T16:22:34.675Z,8.93
2019-05-17T16:25:04.516Z,8.80
2019-05-17T16:27:32.893Z,10.15
2019-05-17T16:30:01.152Z,12.75
2019-05-17T16:32:30.781Z,13.60
2019-05-17T16:34:59.926Z,11.10
2019-05-17T16:37:28.301Z,13.20
2019-05-17T16:39:56.688Z,12.70
2019-05-17T16:42:24.896Z,10.32
2019-05-17T16:44:53.304Z,11.83
2019-05-17T16:47:21.621Z,12.03
2019-05-17T16:49:49.934Z,15.90
2019-05-17T16:52:18.318Z,13.78
2019-05-17T16:54:46.557Z,14.45
2019-05-17T16:57:14.666Z,11.00
2019-05-17T16:59:42.966Z,9.58
2019-05-17T17:02:11.349Z,7.95
2019-05-17T17:04:39.650Z,6.70
2019-05-17T17:07:07.986Z,10.95
2019-05-17T17:09:36.325Z,14.58
2019-05-17T17:12:04.649Z,10.93
2019-05-17T17:14:33.116Z,10.70
2019-05-17T17:17:01.701Z,7.33
2019-05-17T17:19:30.277Z,6.67
2019-05-17T17:21:58.675Z,6.20
2019-05-17T17:24:26.909Z,7.22
2019-05-17T17:26:55.153Z,10.88
2019-05-17T17:29:23.464Z,8.88
2019-05-17T17:31:51.746Z,11.93
2019-05-17T17:34:20.157Z,9.55
2019-05-17T17:36:48.607Z,11.93
2019-05-17T17:39:16.988Z,8.05
2019-05-17T17:41:45.324Z,11.05
2019-05-17T17:44:13.791Z,12.07
2019-05-17T17:46:42.245Z,12.78
2019-05-17T17:49:10.527Z,10.88
2019-05-17T17:51:38.967Z,18.40
2019-05-17T17:54:07.342Z,14.93
2019-05-17T17:56:35.733Z,22.02
2019-05-17T17:59:04.089Z,13.58
2019-05-17T18:01:32.641Z,13.95
2019-05-17T18:04:01.124Z,21.57
2019-05-17T18:06:29.467Z,13.13
2019-05-17T18:08:57.959Z,19.42
2019-05-17T18:11:26.217Z,16.23
2019-05-17T18:13:55.599Z,23.80
2019-05-17T18:16:23.880Z,14.30
2019-05-17T18:18:52.190Z,17.35
2019-05-17T18:21:20.583Z,12.13
2019-05-17T18:23:49.057Z,19.35
2019-05-17T18:26:17.313Z,13.83
2019-05-17T18:28:45.660Z,16.87
2019-05-17T18:31:15.016Z,18.55
2019-05-17T18:33:44.638Z,24.05
2019-05-17T18:36:12.970Z,14.23
2019-05-17T18:38:41.506Z,12.55
2019-05-17T18:41:09.897Z,13.90
2019-05-17T18:43:38.197Z,12.20
2019-05-17T18:49:33.966Z,15.03
2019-05-17T18:52:02.261Z,10.70
2019-05-17T18:54:30.559Z,11.85
2019-05-17T18:56:59.990Z,13.00
2019-05-17T18:59:28.435Z,13.65
2019-05-17T19:01:56.849Z,14.60
2019-05-17T19:04:25.147Z,5.85
2019-05-17T19:06:53.464Z,6.90
2019-05-17T19:09:22.269Z,8.35
2019-05-17T19:11:50.514Z,14.03
2019-05-17T19:14:18.761Z,16.40
2019-05-17T19:16:46.982Z,15.60
2019-05-17T19:19:15.339Z,11.35
2019-05-17T19:21:43.871Z,12.13
2019-05-17T19:24:12.123Z,10.40
2019-05-17T19:26:40.526Z,16.57
2019-05-17T19:29:10.181Z,21.37
2019-05-17T19:31:38.686Z,58.15
2019-05-17T19:34:07.077Z,15.15
2019-05-17T19:36:35.395Z,24.43
2019-05-17T19:39:05.024Z,16.90
2019-05-17T19:41:33.441Z,11.33
2019-05-17T19:44:01.948Z,11.40
2019-05-17T19:46:30.401Z,18.60
2019-05-17T19:48:58.770Z,21.02
2019-05-17T19:51:27.239Z,21.97
2019-05-17T19:53:55.847Z,19.98
2019-05-17T19:56:24.182Z,10.20
2019-05-17T19:58:52.502Z,12.28
2019-05-17T20:01:20.933Z,15.00
2019-05-17T20:03:49.881Z,18.60
2019-05-17T20:09:46.038Z,21.05
2019-05-17T20:12:14.777Z,11.90
2019-05-17T20:14:43.318Z,13.48
2019-05-17T20:17:12.433Z,27.83
2019-05-17T20:19:41.032Z,21.93
2019-05-17T20:22:09.445Z,20.55
2019-05-17T20:24:37.858Z,24.63
2019-05-17T20:27:06.210Z,19.70
2019-05-17T20:29:34.494Z,26.50
2019-05-17T20:32:02.940Z,29.57
2019-05-17T20:34:31.488Z,43.47
2019-05-17T20:36:59.753Z,34.33
2019-05-17T20:39:28.227Z,29.67
2019-05-17T20:41:57.525Z,49.93
2019-05-17T20:44:26.061Z,27.33
2019-05-17T20:46:54.455Z,22.70
2019-05-17T20:49:22.761Z,14.78
2019-05-17T20:51:51.043Z,18.60
2019-05-17T20:54:19.388Z,22.90
2019-05-17T20:56:47.649Z,34.93
2019-05-17T20:59:15.969Z,27.37
2019-05-17T21:01:44.603Z,30.00
2019-05-17T21:04:13.062Z,28.27
2019-05-17T21:06:41.435Z,24.97
2019-05-17T21:09:10.054Z,18.20
2019-05-17T21:11:38.382Z,19.77
2019-05-17T21:14:06.791Z,22.73
2019-05-17T21:16:35.274Z,18.73
2019-05-17T21:19:03.539Z,16.57
2019-05-17T21:21:31.872Z,24.70
2019-05-17T21:24:00.048Z,18.03
2019-05-17T21:26:28.356Z,13.03
2019-05-17T21:28:56.811Z,18.30
2019-05-17T21:31:25.248Z,18.80
2019-05-17T21:33:53.518Z,19.10
2019-05-17T21:36:21.973Z,19.77
2019-05-17T21:38:50.312Z,19.30
2019-05-17T21:41:18.625Z,17.20
2019-05-17T21:43:46.947Z,18.32
2019-05-17T21:46:15.310Z,19.40
2019-05-17T21:48:43.584Z,16.00
2019-05-17T21:51:11.901Z,19.93
2019-05-17T21:53:40.309Z,22.60
2019-05-17T21:56:08.709Z,23.47
2019-05-17T21:58:37.095Z,19.97
2019-05-17T22:01:06.987Z,21.63
2019-05-17T22:03:35.290Z,19.92
2019-05-17T22:06:03.681Z,23.00
2019-05-17T22:08:31.957Z,28.17
2019-05-17T22:11:00.154Z,16.05
2019-05-17T22:13:28.504Z,8.15
2019-05-17T22:15:56.814Z,13.53
2019-05-17T22:18:24.980Z,18.57
2019-05-17T22:20:53.290Z,20.37
2019-05-17T22:23:21.618Z,19.57
2019-05-17T22:25:49.799Z,24.33
2019-05-17T22:28:17.996Z,18.17
2019-05-17T22:30:46.198Z,25.37
2019-05-17T22:33:14.529Z,18.60
2019-05-17T22:35:42.889Z,15.97
2019-05-17T22:38:11.266Z,27.17
2019-05-17T22:40:39.639Z,36.73
2019-05-17T22:43:08.054Z,30.67
2019-05-17T22:45:36.418Z,33.95
2019-05-17T22:48:04.922Z,25.30
2019-05-17T22:50:33.340Z,19.30
2019-05-17T22:53:01.749Z,19.25
2019-05-17T22:55:30.122Z,10.23
2019-05-17T22:57:58.382Z,16.00
2019-05-17T23:00:26.784Z,21.97
2019-05-17T23:02:55.088Z,18.07
2019-05-17T23:05:26.369Z,25.55
2019-05-17T23:07:53.248Z,22.93
2019-05-17T23:10:21.518Z,25.27
2019-05-17T23:12:49.815Z,24.12
2019-05-17T23:15:18.430Z,23.23
2019-05-17T23:17:46.849Z,25.02
2019-05-17T23:20:16.516Z,20.70
2019-05-17T23:22:45.829Z,22.00
2019-05-17T23:25:14.093Z,25.77
2019-05-17T23:27:42.285Z,21.93
2019-05-17T23:30:10.780Z,21.13
2019-05-17T23:32:39.074Z,19.13
2019-05-17T23:35:07.292Z,21.23
2019-05-17T23:37:35.592Z,14.63
2019-05-17T23:40:05.190Z,27.27
2019-05-17T23:42:33.398Z,16.67
2019-05-17T23:45:01.671Z,19.30
2019-05-17T23:47:30.088Z,19.30
2019-05-17T23:49:58.369Z,18.77
2019-05-17T23:52:26.631Z,12.00
2019-05-17T23:54:55.039Z,22.20
2019-05-17T23:57:23.297Z,22.23
2019-05-17T23:59:51.713Z,24.80
